This is the latest recevied weather packets stored in our database for station/object KM4KBD. If no packets are shown the sender has not sent any weather packets the latest 10 day(s).
| Time | Temp. | Humidity | Pressure | Rain* | Wind** | Luminosity | Snow |
|---|---|---|---|---|---|---|---|
| 1777778035 | 6.11° C | 78% | 1024.7 hPa | 0 mm | - | 0 W/m² | - |
| 1777777731 | 6.67° C | 77% | 1024.6 hPa | 0 mm | - | 0 W/m² | - |
| 1777777428 | 6.67° C | 78% | 1024.6 hPa | 0 mm | - | 0 W/m² | - |
| 1777777124 | 6.11° C | 80% | 1024.6 hPa | 0 mm | - | 0 W/m² | - |
| 1777776822 | 6.11° C | 81% | 1024.6 hPa | 0 mm | - | 0 W/m² | - |
| 1777776519 | 6.11° C | 81% | 1024.5 hPa | 0 mm | - | 0 W/m² | - |
| 1777776215 | 5.56° C | 81% | 1024.5 hPa | 0 mm | - | 0 W/m² | - |
| 1777775912 | 5.56° C | 79% | 1024.3 hPa | 0 mm | - | 0 W/m² | - |
| 1777775610 | 6.11° C | 78% | 1024.1 hPa | 0 mm | - | 0 W/m² | - |
| 1777775306 | 6.11° C | 78% | 1024.3 hPa | 0 mm | - | 0 W/m² | - |
| 1777775006 | 6.67° C | 77% | 1024.1 hPa | 0 mm | - | 0 W/m² | - |
| 1777774702 | 6.67° C | 78% | 1024.2 hPa | 0 mm | - | 0 W/m² | - |
| 1777774399 | 6.67° C | 76% | 1024.1 hPa | 0 mm | - | 0 W/m² | - |
| 1777774096 | 7.22° C | 75% | 1023.9 hPa | 0 mm | - | 0 W/m² | - |
| 1777773794 | 7.22° C | 75% | 1024.3 hPa | 0 mm | - | 0 W/m² | - |
| 1777773490 | 7.78° C | 73% | 1024.1 hPa | 0 mm | - | 0 W/m² | - |
| 1777773188 | 7.78° C | 71% | 1024 hPa | 0 mm | - | 0 W/m² | - |
| 1777772883 | 8.33° C | 69% | 1024 hPa | 0 mm | - | 0 W/m² | - |
| 1777772581 | 8.33° C | 69% | 1023.7 hPa | 0 mm | - | 0 W/m² | - |
| 1777772278 | 8.33° C | 69% | 1023.8 hPa | 0 mm | - | 0 W/m² | - |
| 1777771976 | 7.78° C | 71% | 1023.5 hPa | 0 mm | - | 0 W/m² | - |
| 1777771673 | 7.78° C | 72% | 1023.7 hPa | 0 mm | - | 0 W/m² | - |
| 1777771370 | 8.33° C | 71% | 1023.7 hPa | 0 mm | - | 0 W/m² | - |
| 1777771067 | 8.33° C | 67% | 1023.7 hPa | 0 mm | - | 0 W/m² | - |
| 1777770764 | 8.89° C | 66% | 1023.5 hPa | 0 mm | - | 0 W/m² | - |
* Rain latest hour (hover to see other rain measurements)
** Current wind speed in m/s (hover to see current wind gust speed)